sensor_id;sensor_type;location;lat;lon;timestamp;pressure;altitude;pressure_sealevel;temperature;humidity
8573;BME280;4324;42.012;24.872;2024-01-06T00:00:16;98875.47;;;8.81;70.49
8573;BME280;4324;42.012;24.872;2024-01-06T00:02:44;98857.28;;;8.70;70.68
8573;BME280;4324;42.012;24.872;2024-01-06T00:05:11;98880.56;;;8.75;70.85
8573;BME280;4324;42.012;24.872;2024-01-06T00:07:38;98854.44;;;8.63;71.13
8573;BME280;4324;42.012;24.872;2024-01-06T00:10:06;98867.72;;;8.80;71.17
8573;BME280;4324;42.012;24.872;2024-01-06T00:12:34;98860.47;;;8.82;71.12
8573;BME280;4324;42.012;24.872;2024-01-06T00:15:01;98842.47;;;8.77;71.37
8573;BME280;4324;42.012;24.872;2024-01-06T00:17:28;98843.47;;;8.76;71.44
8573;BME280;4324;42.012;24.872;2024-01-06T00:19:56;98842.63;;;8.76;71.72
8573;BME280;4324;42.012;24.872;2024-01-06T00:22:23;98829.34;;;8.59;71.56
8573;BME280;4324;42.012;24.872;2024-01-06T00:24:50;98867.53;;;8.73;71.79
8573;BME280;4324;42.012;24.872;2024-01-06T00:27:17;98866.47;;;8.58;72.07
8573;BME280;4324;42.012;24.872;2024-01-06T00:29:44;98875.03;;;8.60;72.21
8573;BME280;4324;42.012;24.872;2024-01-06T00:32:13;98867.97;;;8.60;72.35
8573;BME280;4324;42.012;24.872;2024-01-06T00:34:40;98851.94;;;8.54;72.35
8573;BME280;4324;42.012;24.872;2024-01-06T00:37:08;98868.16;;;8.67;72.50
8573;BME280;4324;42.012;24.872;2024-01-06T00:39:35;98862.88;;;8.67;72.53
8573;BME280;4324;42.012;24.872;2024-01-06T00:42:02;98871.47;;;8.69;72.64
8573;BME280;4324;42.012;24.872;2024-01-06T00:44:28;98861.72;;;8.69;72.81
8573;BME280;4324;42.012;24.872;2024-01-06T00:46:55;98853.47;;;8.64;73.17
8573;BME280;4324;42.012;24.872;2024-01-06T00:49:22;98853.66;;;8.71;72.98
8573;BME280;4324;42.012;24.872;2024-01-06T00:51:49;98849.84;;;8.65;73.11
8573;BME280;4324;42.012;24.872;2024-01-06T00:54:18;98847.34;;;8.64;72.90
8573;BME280;4324;42.012;24.872;2024-01-06T00:56:44;98833.78;;;8.59;73.07
8573;BME280;4324;42.012;24.872;2024-01-06T00:59:11;98834.81;;;8.66;73.41
8573;BME280;4324;42.012;24.872;2024-01-06T01:01:38;98838.66;;;8.71;73.28
8573;BME280;4324;42.012;24.872;2024-01-06T01:04:05;98830.88;;;8.70;73.53
8573;BME280;4324;42.012;24.872;2024-01-06T01:06:32;98813.03;;;8.64;73.55
8573;BME280;4324;42.012;24.872;2024-01-06T01:08:59;98822.81;;;8.71;73.62
8573;BME280;4324;42.012;24.872;2024-01-06T01:11:28;98824.78;;;8.69;73.73
8573;BME280;4324;42.012;24.872;2024-01-06T01:13:54;98814.53;;;8.66;73.97
8573;BME280;4324;42.012;24.872;2024-01-06T01:16:22;98824.47;;;8.72;73.94
8573;BME280;4324;42.012;24.872;2024-01-06T01:18:50;98816.38;;;8.74;73.79
8573;BME280;4324;42.012;24.872;2024-01-06T01:21:17;98808.63;;;8.72;73.74
8573;BME280;4324;42.012;24.872;2024-01-06T01:23:44;98772.25;;;8.50;73.58
8573;BME280;4324;42.012;24.872;2024-01-06T01:26:11;98794.38;;;8.57;73.93
8573;BME280;4324;42.012;24.872;2024-01-06T01:28:39;98800.28;;;8.51;74.01
8573;BME280;4324;42.012;24.872;2024-01-06T01:31:06;98796.50;;;8.54;74.16
8573;BME280;4324;42.012;24.872;2024-01-06T01:33:33;98797.34;;;8.54;74.23
8573;BME280;4324;42.012;24.872;2024-01-06T01:36:00;98804.13;;;8.57;74.58
8573;BME280;4324;42.012;24.872;2024-01-06T01:38:27;98795.09;;;8.41;74.42
8573;BME280;4324;42.012;24.872;2024-01-06T01:40:54;98799.88;;;8.38;74.38
8573;BME280;4324;42.012;24.872;2024-01-06T01:43:21;98818.41;;;8.46;74.88
8573;BME280;4324;42.012;24.872;2024-01-06T01:45:52;98820.88;;;8.47;74.81
8573;BME280;4324;42.012;24.872;2024-01-06T01:48:20;98827.97;;;8.47;75.14
8573;BME280;4324;42.012;24.872;2024-01-06T01:50:48;98811.09;;;8.40;75.28
8573;BME280;4324;42.012;24.872;2024-01-06T01:53:15;98779.34;;;8.23;75.08
8573;BME280;4324;42.012;24.872;2024-01-06T01:55:43;98808.16;;;8.43;74.95
8573;BME280;4324;42.012;24.872;2024-01-06T01:58:12;98797.94;;;8.48;74.75
8573;BME280;4324;42.012;24.872;2024-01-06T02:00:39;98814.66;;;8.57;74.88
8573;BME280;4324;42.012;24.872;2024-01-06T02:03:09;98811.53;;;8.53;74.67
8573;BME280;4324;42.012;24.872;2024-01-06T02:05:37;98799.13;;;8.45;74.99
8573;BME280;4324;42.012;24.872;2024-01-06T02:08:05;98790.81;;;8.40;74.93
8573;BME280;4324;42.012;24.872;2024-01-06T02:10:32;98798.19;;;8.37;75.29
8573;BME280;4324;42.012;24.872;2024-01-06T02:13:07;98800.84;;;8.37;75.08
8573;BME280;4324;42.012;24.872;2024-01-06T02:15:34;98791.56;;;8.33;75.07
8573;BME280;4324;42.012;24.872;2024-01-06T02:18:01;98777.00;;;8.20;75.05
8573;BME280;4324;42.012;24.872;2024-01-06T02:20:30;98793.56;;;8.31;75.04
8573;BME280;4324;42.012;24.872;2024-01-06T02:22:58;98797.16;;;8.30;75.35
8573;BME280;4324;42.012;24.872;2024-01-06T02:25:26;98780.31;;;8.22;75.39
8573;BME280;4324;42.012;24.872;2024-01-06T02:27:53;98798.16;;;8.29;75.28
8573;BME280;4324;42.012;24.872;2024-01-06T02:30:20;98790.25;;;8.29;75.18
8573;BME280;4324;42.012;24.872;2024-01-06T02:32:47;98758.84;;;8.17;75.35
8573;BME280;4324;42.012;24.872;2024-01-06T02:35:14;98775.53;;;8.26;75.36
8573;BME280;4324;42.012;24.872;2024-01-06T02:37:40;98789.63;;;8.35;75.27
8573;BME280;4324;42.012;24.872;2024-01-06T02:40:10;98781.63;;;8.27;75.36
8573;BME280;4324;42.012;24.872;2024-01-06T02:42:37;98778.19;;;8.26;75.53
8573;BME280;4324;42.012;24.872;2024-01-06T02:45:06;98786.59;;;8.30;75.62
8573;BME280;4324;42.012;24.872;2024-01-06T02:47:33;98782.38;;;8.37;75.75
8573;BME280;4324;42.012;24.872;2024-01-06T02:50:00;98775.31;;;8.37;75.85
8573;BME280;4324;42.012;24.872;2024-01-06T02:52:27;98780.28;;;8.40;75.74
8573;BME280;4324;42.012;24.872;2024-01-06T02:54:53;98788.19;;;8.40;75.69
8573;BME280;4324;42.012;24.872;2024-01-06T02:57:22;98796.47;;;8.45;75.26
8573;BME280;4324;42.012;24.872;2024-01-06T02:59:49;98794.28;;;8.41;75.20
8573;BME280;4324;42.012;24.872;2024-01-06T03:02:16;98790.28;;;8.37;75.27
8573;BME280;4324;42.012;24.872;2024-01-06T03:04:43;98799.50;;;8.33;75.63
8573;BME280;4324;42.012;24.872;2024-01-06T03:07:10;98797.84;;;8.32;75.92
8573;BME280;4324;42.012;24.872;2024-01-06T03:09:37;98775.19;;;8.21;75.94
8573;BME280;4324;42.012;24.872;2024-01-06T03:12:05;98803.47;;;8.37;76.25
8573;BME280;4324;42.012;24.872;2024-01-06T03:14:34;98799.88;;;8.38;76.25
8573;BME280;4324;42.012;24.872;2024-01-06T03:17:01;98772.09;;;8.25;76.20
8573;BME280;4324;42.012;24.872;2024-01-06T03:19:28;98785.41;;;8.42;76.19
8573;BME280;4324;42.012;24.872;2024-01-06T03:21:55;98788.69;;;8.44;76.18
8573;BME280;4324;42.012;24.872;2024-01-06T03:24:24;98785.06;;;8.45;76.29
8573;BME280;4324;42.012;24.872;2024-01-06T03:26:51;98773.38;;;8.47;76.22
8573;BME280;4324;42.012;24.872;2024-01-06T03:29:18;98735.00;;;8.27;75.71
8573;BME280;4324;42.012;24.872;2024-01-06T03:31:47;98770.75;;;8.47;75.54
8573;BME280;4324;42.012;24.872;2024-01-06T03:34:14;98744.09;;;8.33;75.70
8573;BME280;4324;42.012;24.872;2024-01-06T03:36:41;98741.75;;;8.30;76.05
8573;BME280;4324;42.012;24.872;2024-01-06T03:39:08;98774.56;;;8.53;75.88
8573;BME280;4324;42.012;24.872;2024-01-06T03:41:35;98764.34;;;8.50;75.93
8573;BME280;4324;42.012;24.872;2024-01-06T03:44:03;98776.56;;;8.59;75.98
8573;BME280;4324;42.012;24.872;2024-01-06T03:46:30;98778.22;;;8.60;75.92
8573;BME280;4324;42.012;24.872;2024-01-06T03:48:58;98769.63;;;8.58;75.92
8573;BME280;4324;42.012;24.872;2024-01-06T03:51:25;98778.22;;;8.60;75.96
8573;BME280;4324;42.012;24.872;2024-01-06T03:53:52;98766.16;;;8.58;75.85
8573;BME280;4324;42.012;24.872;2024-01-06T03:56:19;98767.16;;;8.57;75.93
8573;BME280;4324;42.012;24.872;2024-01-06T03:58:46;98760.69;;;8.51;76.03
8573;BME280;4324;42.012;24.872;2024-01-06T04:01:13;98749.81;;;8.46;75.82
8573;BME280;4324;42.012;24.872;2024-01-06T04:03:40;98763.03;;;8.54;75.51
8573;BME280;4324;42.012;24.872;2024-01-06T04:06:09;98763.53;;;8.58;75.88
8573;BME280;4324;42.012;24.872;2024-01-06T04:08:36;98758.91;;;8.60;76.10
8573;BME280;4324;42.012;24.872;2024-01-06T04:11:03;98766.00;;;8.59;75.95
8573;BME280;4324;42.012;24.872;2024-01-06T04:13:30;98749.47;;;8.49;75.97
8573;BME280;4324;42.012;24.872;2024-01-06T04:15:57;98758.06;;;8.51;76.28
8573;BME280;4324;42.012;24.872;2024-01-06T04:18:24;98760.22;;;8.56;76.33
8573;BME280;4324;42.012;24.872;2024-01-06T04:20:50;98751.97;;;8.51;76.15
8573;BME280;4324;42.012;24.872;2024-01-06T04:23:19;98754.59;;;8.51;75.96
8573;BME280;4324;42.012;24.872;2024-01-06T04:25:46;98754.72;;;8.49;76.23
8573;BME280;4324;42.012;24.872;2024-01-06T04:28:13;98751.28;;;8.48;76.06
8573;BME280;4324;42.012;24.872;2024-01-06T04:30:40;98751.78;;;8.52;76.20
8573;BME280;4324;42.012;24.872;2024-01-06T04:33:07;98752.97;;;8.58;74.95
8573;BME280;4324;42.012;24.872;2024-01-06T04:35:33;98759.75;;;8.60;74.77
8573;BME280;4324;42.012;24.872;2024-01-06T04:38:00;98744.56;;;8.54;74.89
8573;BME280;4324;42.012;24.872;2024-01-06T04:40:29;98753.19;;;8.64;74.98
8573;BME280;4324;42.012;24.872;2024-01-06T04:42:56;98755.47;;;8.67;75.25
8573;BME280;4324;42.012;24.872;2024-01-06T04:45:23;98753.81;;;8.66;75.46
8573;BME280;4324;42.012;24.872;2024-01-06T04:47:50;98757.59;;;8.64;75.42
8573;BME280;4324;42.012;24.872;2024-01-06T04:50:17;98741.28;;;8.60;75.50
8573;BME280;4324;42.012;24.872;2024-01-06T04:52:44;98733.50;;;8.59;75.89
8573;BME280;4324;42.012;24.872;2024-01-06T04:55:11;98743.88;;;8.52;76.03
8573;BME280;4324;42.012;24.872;2024-01-06T04:57:39;98748.00;;;8.55;75.70
8573;BME280;4324;42.012;24.872;2024-01-06T05:00:07;98760.38;;;8.54;76.42
8573;BME280;4324;42.012;24.872;2024-01-06T05:02:34;98757.75;;;8.54;76.25
8573;BME280;4324;42.012;24.872;2024-01-06T05:05:01;98751.63;;;8.45;76.42
8573;BME280;4324;42.012;24.872;2024-01-06T05:07:28;98755.41;;;8.51;75.67
8573;BME280;4324;42.012;24.872;2024-01-06T05:09:55;98759.38;;;8.55;75.55
8573;BME280;4324;42.012;24.872;2024-01-06T05:12:22;98751.75;;;8.44;75.83
8573;BME280;4324;42.012;24.872;2024-01-06T05:14:50;98764.28;;;8.42;75.85
8573;BME280;4324;42.012;24.872;2024-01-06T05:17:17;98770.94;;;8.28;76.16
8573;BME280;4324;42.012;24.872;2024-01-06T05:19:44;98787.78;;;8.27;76.64
8573;BME280;4324;42.012;24.872;2024-01-06T05:22:11;98779.78;;;8.19;76.47
8573;BME280;4324;42.012;24.872;2024-01-06T05:24:38;98788.34;;;8.13;77.32
8573;BME280;4324;42.012;24.872;2024-01-06T05:27:05;98781.13;;;7.97;77.38
8573;BME280;4324;42.012;24.872;2024-01-06T05:29:32;98791.38;;;8.00;77.67
8573;BME280;4324;42.012;24.872;2024-01-06T05:32:00;98761.75;;;7.80;77.85
8573;BME280;4324;42.012;24.872;2024-01-06T05:34:27;98794.66;;;7.94;77.91
8573;BME280;4324;42.012;24.872;2024-01-06T05:36:54;98780.13;;;7.90;78.12
8573;BME280;4324;42.012;24.872;2024-01-06T05:39:21;98794.44;;;7.87;78.06
8573;BME280;4324;42.012;24.872;2024-01-06T05:41:48;98774.13;;;7.80;77.99
8573;BME280;4324;42.012;24.872;2024-01-06T05:44:15;98786.66;;;7.86;78.36
8573;BME280;4324;42.012;24.872;2024-01-06T05:46:42;98797.19;;;7.86;78.57
8573;BME280;4324;42.012;24.872;2024-01-06T05:49:10;98785.47;;;7.80;78.38
8573;BME280;4324;42.012;24.872;2024-01-06T05:51:37;98790.88;;;7.79;79.06
8573;BME280;4324;42.012;24.872;2024-01-06T05:54:04;98789.25;;;7.78;78.60
8573;BME280;4324;42.012;24.872;2024-01-06T05:56:31;98780.00;;;7.73;79.19
8573;BME280;4324;42.012;24.872;2024-01-06T05:58:58;98800.78;;;7.76;79.41
8573;BME280;4324;42.012;24.872;2024-01-06T06:01:25;98788.25;;;7.79;79.54
8573;BME280;4324;42.012;24.872;2024-01-06T06:03:53;98784.66;;;7.80;79.79
8573;BME280;4324;42.012;24.872;2024-01-06T06:06:33;98743.28;;;7.54;79.69
8573;BME280;4324;42.012;24.872;2024-01-06T06:09:00;98774.41;;;7.76;79.87
8573;BME280;4324;42.012;24.872;2024-01-06T06:11:37;98700.78;;;7.31;79.50
8573;BME280;4324;42.012;24.872;2024-01-06T06:14:29;98789.38;;;7.94;79.47
8573;BME280;4324;42.012;24.872;2024-01-06T06:16:56;98790.41;;;8.01;79.41
8573;BME280;4324;42.012;24.872;2024-01-06T06:19:32;98752.72;;;7.83;79.94
8573;BME280;4324;42.012;24.872;2024-01-06T06:22:09;98753.75;;;7.90;79.76
8573;BME280;4324;42.012;24.872;2024-01-06T06:24:36;98715.09;;;7.72;79.89
8573;BME280;4324;42.012;24.872;2024-01-06T06:27:04;98681.22;;;7.60;80.03
8573;BME280;4324;42.012;24.872;2024-01-06T06:29:31;98782.63;;;8.25;80.15
8573;BME280;4324;42.012;24.872;2024-01-06T06:31:58;98657.84;;;7.57;79.78
8573;BME280;4324;42.012;24.872;2024-01-06T06:34:25;98715.91;;;7.99;80.14
8573;BME280;4324;42.012;24.872;2024-01-06T06:36:52;98770.47;;;8.33;80.18
8573;BME280;4324;42.012;24.872;2024-01-06T06:39:20;98715.28;;;8.05;80.14
8573;BME280;4324;42.012;24.872;2024-01-06T06:41:47;98662.91;;;7.76;80.35
8573;BME280;4324;42.012;24.872;2024-01-06T06:44:14;98756.38;;;8.42;79.79
8573;BME280;4324;42.012;24.872;2024-01-06T06:46:41;98709.56;;;8.18;79.66
8573;BME280;4324;42.012;24.872;2024-01-06T06:49:08;98744.53;;;8.46;79.61
8573;BME280;4324;42.012;24.872;2024-01-06T06:51:35;98680.34;;;8.11;80.00
8573;BME280;4324;42.012;24.872;2024-01-06T06:54:02;98734.00;;;8.54;79.97
8573;BME280;4324;42.012;24.872;2024-01-06T06:56:30;98676.63;;;8.22;79.76
8573;BME280;4324;42.012;24.872;2024-01-06T06:58:57;98726.41;;;8.59;80.04
8573;BME280;4324;42.012;24.872;2024-01-06T07:01:24;98635.53;;;8.11;79.63
8573;BME280;4324;42.012;24.872;2024-01-06T07:03:51;98662.28;;;8.24;79.43
8573;BME280;4324;42.012;24.872;2024-01-06T07:06:19;98661.28;;;8.25;79.49
8573;BME280;4324;42.012;24.872;2024-01-06T07:08:55;98735.03;;;8.69;79.53
8573;BME280;4324;42.012;24.872;2024-01-06T07:11:25;98750.56;;;8.72;79.28
8573;BME280;4324;42.012;24.872;2024-01-06T07:13:54;98732.41;;;8.69;79.13
8573;BME280;4324;42.012;24.872;2024-01-06T07:16:21;98640.28;;;8.08;79.24
8573;BME280;4324;42.012;24.872;2024-01-06T07:18:48;98697.19;;;8.53;79.30
8573;BME280;4324;42.012;24.872;2024-01-06T07:21:15;98690.78;;;8.55;79.23
8573;BME280;4324;42.012;24.872;2024-01-06T07:23:43;98664.69;;;8.44;79.54
8573;BME280;4324;42.012;24.872;2024-01-06T07:26:28;98736.06;;;8.93;79.77
8573;BME280;4324;42.012;24.872;2024-01-06T07:28:56;98656.97;;;8.51;79.82
8573;BME280;4324;42.012;24.872;2024-01-06T07:31:25;98689.66;;;8.74;79.99
8573;BME280;4324;42.012;24.872;2024-01-06T07:33:52;98662.75;;;8.62;80.05
8573;BME280;4324;42.012;24.872;2024-01-06T07:36:26;98628.56;;;8.44;80.11
8573;BME280;4324;42.012;24.872;2024-01-06T07:38:59;98680.44;;;8.78;80.37
8573;BME280;4324;42.012;24.872;2024-01-06T07:41:26;98723.56;;;9.03;80.42
8573;BME280;4324;42.012;24.872;2024-01-06T07:43:53;98710.84;;;8.90;80.40
8573;BME280;4324;42.012;24.872;2024-01-06T07:46:24;98617.47;;;8.33;79.68
8573;BME280;4324;42.012;24.872;2024-01-06T07:48:53;98725.19;;;8.96;79.85
8573;BME280;4324;42.012;24.872;2024-01-06T07:51:41;98733.59;;;8.91;79.94
8573;BME280;4324;42.012;24.872;2024-01-06T07:54:08;98720.91;;;8.87;80.41
8573;BME280;4324;42.012;24.872;2024-01-06T07:56:37;98676.44;;;8.58;80.50
8573;BME280;4324;42.012;24.872;2024-01-06T07:59:05;98727.13;;;8.78;80.41
8573;BME280;4324;42.012;24.872;2024-01-06T08:01:43;98717.56;;;8.68;80.42
8573;BME280;4324;42.012;24.872;2024-01-06T08:04:10;98728.75;;;8.70;80.88
8573;BME280;4324;42.012;24.872;2024-01-06T08:06:37;98723.47;;;8.70;81.01
8573;BME280;4324;42.012;24.872;2024-01-06T08:09:04;98732.09;;;8.81;81.10
8573;BME280;4324;42.012;24.872;2024-01-06T08:11:33;98733.09;;;8.88;80.89
8573;BME280;4324;42.012;24.872;2024-01-06T08:14:07;98714.13;;;8.92;80.82
8573;BME280;4324;42.012;24.872;2024-01-06T08:16:34;98741.72;;;9.23;80.52
8573;BME280;4324;42.012;24.872;2024-01-06T08:19:12;98738.63;;;9.43;80.26
8573;BME280;4324;42.012;24.872;2024-01-06T08:21:41;98737.94;;;9.66;80.11
8573;BME280;4324;42.012;24.872;2024-01-06T08:24:08;98746.53;;;9.84;79.74
8573;BME280;4324;42.012;24.872;2024-01-06T08:26:39;98723.84;;;9.90;79.67
8573;BME280;4324;42.012;24.872;2024-01-06T08:29:17;98727.81;;;10.02;79.46
8573;BME280;4324;42.012;24.872;2024-01-06T08:31:50;98738.03;;;10.13;79.50
8573;BME280;4324;42.012;24.872;2024-01-06T08:34:19;98698.03;;;10.00;79.23
8573;BME280;4324;42.012;24.872;2024-01-06T08:36:49;98732.91;;;10.28;79.07
8573;BME280;4324;42.012;24.872;2024-01-06T08:39:19;98728.25;;;10.38;78.63
8573;BME280;4324;42.012;24.872;2024-01-06T08:41:49;98717.94;;;10.44;78.25
8573;BME280;4324;42.012;24.872;2024-01-06T08:44:16;98724.34;;;10.49;78.62
8573;BME280;4324;42.012;24.872;2024-01-06T08:46:43;98720.94;;;10.40;78.77
8573;BME280;4324;42.012;24.872;2024-01-06T08:49:27;98711.22;;;10.25;78.44
8573;BME280;4324;42.012;24.872;2024-01-06T08:52:05;98736.69;;;10.26;78.47
8573;BME280;4324;42.012;24.872;2024-01-06T08:54:33;98723.81;;;10.14;78.84
8573;BME280;4324;42.012;24.872;2024-01-06T08:57:00;98726.28;;;10.08;79.19
8573;BME280;4324;42.012;24.872;2024-01-06T08:59:27;98732.22;;;10.18;79.05
8573;BME280;4324;42.012;24.872;2024-01-06T09:01:54;98658.78;;;9.81;78.58
8573;BME280;4324;42.012;24.872;2024-01-06T09:04:23;98702.78;;;10.21;78.80
8573;BME280;4324;42.012;24.872;2024-01-06T09:06:52;98712.84;;;10.42;78.77
8573;BME280;4324;42.012;24.872;2024-01-06T09:09:19;98712.13;;;10.48;78.65
8573;BME280;4324;42.012;24.872;2024-01-06T09:11:49;98708.13;;;10.52;78.75
8573;BME280;4324;42.012;24.872;2024-01-06T09:14:20;98619.38;;;10.02;78.78
8573;BME280;4324;42.012;24.872;2024-01-06T09:16:47;98679.22;;;10.51;78.89
8573;BME280;4324;42.012;24.872;2024-01-06T09:19:14;98682.94;;;10.64;79.13
8573;BME280;4324;42.012;24.872;2024-01-06T09:21:41;98658.66;;;10.53;79.07
8573;BME280;4324;42.012;24.872;2024-01-06T09:24:12;98665.22;;;10.65;78.64
8573;BME280;4324;42.012;24.872;2024-01-06T09:26:39;98601.19;;;10.38;78.35
8573;BME280;4324;42.012;24.872;2024-01-06T09:29:07;98669.47;;;10.97;78.68
8573;BME280;4324;42.012;24.872;2024-01-06T09:31:40;98609.91;;;10.70;78.44
8573;BME280;4324;42.012;24.872;2024-01-06T09:34:09;98609.69;;;10.80;78.60
8573;BME280;4324;42.012;24.872;2024-01-06T09:36:37;98558.91;;;10.53;78.52
8573;BME280;4324;42.012;24.872;2024-01-06T09:39:05;98576.16;;;10.72;78.67
8573;BME280;4324;42.012;24.872;2024-01-06T09:41:35;98641.50;;;11.18;78.83
8573;BME280;4324;42.012;24.872;2024-01-06T09:44:02;98644.06;;;11.26;78.89
8573;BME280;4324;42.012;24.872;2024-01-06T09:46:29;98646.13;;;11.38;78.74
8573;BME280;4324;42.012;24.872;2024-01-06T09:48:56;98629.03;;;11.41;78.49
8573;BME280;4324;42.012;24.872;2024-01-06T09:51:28;98641.84;;;11.52;78.44
8573;BME280;4324;42.012;24.872;2024-01-06T09:53:57;98601.22;;;11.37;78.24
8573;BME280;4324;42.012;24.872;2024-01-06T09:56:25;98624.28;;;11.51;78.24
8573;BME280;4324;42.012;24.872;2024-01-06T09:58:55;98608.13;;;11.46;78.64
8573;BME280;4324;42.012;24.872;2024-01-06T10:01:22;98610.78;;;11.46;78.68
8573;BME280;4324;42.012;24.872;2024-01-06T10:03:49;98595.38;;;11.27;78.53
8573;BME280;4324;42.012;24.872;2024-01-06T10:06:17;98602.94;;;11.15;79.15
8573;BME280;4324;42.012;24.872;2024-01-06T10:08:44;98597.97;;;11.12;79.42
8573;BME280;4324;42.012;24.872;2024-01-06T10:11:14;98585.28;;;11.07;79.24
8573;BME280;4324;42.012;24.872;2024-01-06T10:13:44;98586.63;;;11.03;79.21
8573;BME280;4324;42.012;24.872;2024-01-06T10:16:12;98596.22;;;11.04;79.25
8573;BME280;4324;42.012;24.872;2024-01-06T10:18:39;98586.72;;;10.95;79.52
8573;BME280;4324;42.012;24.872;2024-01-06T10:21:07;98593.53;;;10.89;79.79
8573;BME280;4324;42.012;24.872;2024-01-06T10:23:34;98586.31;;;10.83;79.94
8573;BME280;4324;42.012;24.872;2024-01-06T10:26:04;98575.25;;;10.80;80.22
8573;BME280;4324;42.012;24.872;2024-01-06T10:28:33;98572.25;;;10.83;80.37
8573;BME280;4324;42.012;24.872;2024-01-06T10:31:01;98575.06;;;10.81;80.26
8573;BME280;4324;42.012;24.872;2024-01-06T10:33:32;98565.38;;;10.74;80.18
8573;BME280;4324;42.012;24.872;2024-01-06T10:36:00;98546.97;;;10.57;80.12
8573;BME280;4324;42.012;24.872;2024-01-06T10:38:39;98567.19;;;10.73;80.14
8573;BME280;4324;42.012;24.872;2024-01-06T10:41:07;98567.53;;;10.70;80.37
8573;BME280;4324;42.012;24.872;2024-01-06T10:43:35;98551.53;;;10.63;80.49
8573;BME280;4324;42.012;24.872;2024-01-06T10:46:06;98566.72;;;10.70;80.60
8573;BME280;4324;42.012;24.872;2024-01-06T10:48:40;98555.31;;;10.69;80.65
8573;BME280;4324;42.012;24.872;2024-01-06T10:51:10;98550.50;;;10.73;80.52
8573;BME280;4324;42.012;24.872;2024-01-06T10:53:37;98535.31;;;10.66;80.79
8573;BME280;4324;42.012;24.872;2024-01-06T10:56:05;98530.94;;;10.74;80.92
8573;BME280;4324;42.012;24.872;2024-01-06T10:58:34;98533.25;;;10.77;80.71
8573;BME280;4324;42.012;24.872;2024-01-06T11:01:08;98520.00;;;10.77;80.46
8573;BME280;4324;42.012;24.872;2024-01-06T11:03:36;98530.78;;;10.90;80.59
8573;BME280;4324;42.012;24.872;2024-01-06T11:06:06;98514.53;;;10.93;80.77
8573;BME280;4324;42.012;24.872;2024-01-06T11:08:42;98495.25;;;10.84;80.55
8573;BME280;4324;42.012;24.872;2024-01-06T11:11:15;98503.22;;;10.99;80.50
8573;BME280;4324;42.012;24.872;2024-01-06T11:13:43;98509.09;;;11.09;80.56
8573;BME280;4324;42.012;24.872;2024-01-06T11:16:11;98483.59;;;11.08;80.54
8573;BME280;4324;42.012;24.872;2024-01-06T11:18:39;98500.25;;;11.32;80.38
8573;BME280;4324;42.012;24.872;2024-01-06T11:21:21;98485.25;;;11.39;80.24
8573;BME280;4324;42.012;24.872;2024-01-06T11:24:19;98502.31;;;11.66;79.86
8573;BME280;4324;42.012;24.872;2024-01-06T11:26:50;98497.00;;;11.81;79.47
8573;BME280;4324;42.012;24.872;2024-01-06T11:29:19;98481.63;;;11.91;79.23
8573;BME280;4324;42.012;24.872;2024-01-06T11:32:16;98482.34;;;12.00;79.29
8573;BME280;4324;42.012;24.872;2024-01-06T11:34:47;98448.59;;;11.94;79.22
8573;BME280;4324;42.012;24.872;2024-01-06T11:37:19;98463.03;;;12.06;79.06
8573;BME280;4324;42.012;24.872;2024-01-06T11:39:46;98459.03;;;12.17;79.37
8573;BME280;4324;42.012;24.872;2024-01-06T11:42:13;98468.38;;;12.34;79.02
8573;BME280;4324;42.012;24.872;2024-01-06T11:44:43;98484.19;;;12.42;78.58
8573;BME280;4324;42.012;24.872;2024-01-06T11:47:12;98472.34;;;12.45;78.24
8573;BME280;4324;42.012;24.872;2024-01-06T11:49:52;98471.41;;;12.52;78.13
8573;BME280;4324;42.012;24.872;2024-01-06T11:52:25;98373.34;;;12.01;78.15
8573;BME280;4324;42.012;24.872;2024-01-06T11:54:52;98455.31;;;12.60;78.25
8573;BME280;4324;42.012;24.872;2024-01-06T11:57:24;98399.31;;;12.27;78.06
8573;BME280;4324;42.012;24.872;2024-01-06T11:59:54;98373.72;;;12.20;78.08
8573;BME280;4324;42.012;24.872;2024-01-06T12:02:21;98436.34;;;12.64;78.01
8573;BME280;4324;42.012;24.872;2024-01-06T12:04:49;98435.22;;;12.73;77.62
8573;BME280;4324;42.012;24.872;2024-01-06T12:07:17;98454.91;;;12.85;77.57
8573;BME280;4324;42.012;24.872;2024-01-06T12:09:46;98423.19;;;12.77;77.52
8573;BME280;4324;42.012;24.872;2024-01-06T12:12:15;98383.50;;;12.69;77.26
8573;BME280;4324;42.012;24.872;2024-01-06T12:14:45;98395.91;;;12.96;77.25
8573;BME280;4324;42.012;24.872;2024-01-06T12:17:13;98406.63;;;13.16;77.27
8573;BME280;4324;42.012;24.872;2024-01-06T12:19:40;98423.13;;;13.33;77.16
8573;BME280;4324;42.012;24.872;2024-01-06T12:22:11;98429.25;;;13.34;76.80
8573;BME280;4324;42.012;24.872;2024-01-06T12:24:39;98424.53;;;13.29;76.60
8573;BME280;4324;42.012;24.872;2024-01-06T12:27:08;98423.13;;;13.33;76.56
8573;BME280;4324;42.012;24.872;2024-01-06T12:29:37;98411.63;;;13.26;76.57
8573;BME280;4324;42.012;24.872;2024-01-06T12:32:06;98426.31;;;13.22;76.67
8573;BME280;4324;42.012;24.872;2024-01-06T12:34:34;98421.75;;;13.16;76.53
8573;BME280;4324;42.012;24.872;2024-01-06T12:37:02;98430.34;;;13.11;76.68
8573;BME280;4324;42.012;24.872;2024-01-06T12:39:32;98421.94;;;13.07;76.58
8573;BME280;4324;42.012;24.872;2024-01-06T12:42:03;98426.25;;;13.15;76.42
8573;BME280;4324;42.012;24.872;2024-01-06T12:44:32;98421.53;;;13.11;76.46
8573;BME280;4324;42.012;24.872;2024-01-06T12:47:02;98411.53;;;13.13;76.54
8573;BME280;4324;42.012;24.872;2024-01-06T12:49:29;98418.66;;;13.05;76.83
8573;BME280;4324;42.012;24.872;2024-01-06T12:51:56;98407.78;;;13.00;77.02
8573;BME280;4324;42.012;24.872;2024-01-06T12:54:23;98418.03;;;13.03;77.12
8573;BME280;4324;42.012;24.872;2024-01-06T12:56:50;98412.28;;;13.00;76.88
8573;BME280;4324;42.012;24.872;2024-01-06T12:59:20;98397.41;;;13.05;77.05
8573;BME280;4324;42.012;24.872;2024-01-06T13:01:48;98397.22;;;13.14;76.66
8573;BME280;4324;42.012;24.872;2024-01-06T13:04:15;98387.91;;;13.24;76.68
8573;BME280;4324;42.012;24.872;2024-01-06T13:06:42;98393.22;;;13.31;76.54
8573;BME280;4324;42.012;24.872;2024-01-06T13:09:10;98376.88;;;13.34;76.56
8573;BME280;4324;42.012;24.872;2024-01-06T13:11:42;98399.44;;;13.45;76.01
8573;BME280;4324;42.012;24.872;2024-01-06T13:14:14;98401.47;;;13.43;76.43
8573;BME280;4324;42.012;24.872;2024-01-06T13:16:41;98392.91;;;13.47;76.23
8573;BME280;4324;42.012;24.872;2024-01-06T13:19:09;98400.50;;;13.50;76.37
8573;BME280;4324;42.012;24.872;2024-01-06T13:21:36;98409.69;;;13.54;76.24
8573;BME280;4324;42.012;24.872;2024-01-06T13:24:05;98399.25;;;13.53;76.20